Time;durP1;ratioP1;P1;durP2;ratioP2;P2;SDS_P1;SDS_P2;PMS_P1;PMS_P2;Temp;Humidity;BMP_temperature;BMP_pressure;BME280_temperature;BME280_humidity;BME280_pressure;Samples;Min_cycle;Max_cycle;Signal;HPM_P1;HPM_P2
2023/05/08 00:00:16;;;;;;;14.40;11.05;;;;;;;-143.48;100.00;118439.88;5056647;28;20028;-72
2023/05/08 00:02:41;;;;;;;15.40;11.50;;;;;;;-143.48;100.00;118439.88;5056807;28;20025;-73
2023/05/08 00:05:07;;;;;;;12.50;10.23;;;;;;;-143.48;100.00;118439.88;5038757;28;20112;-74
2023/05/08 00:07:32;;;;;;;17.50;10.25;;;;;;;-143.48;100.00;118439.88;5056554;28;20032;-72
2023/05/08 00:09:57;;;;;;;11.73;10.15;;;;;;;-143.48;100.00;118439.88;5056638;28;20029;-74
2023/05/08 00:12:23;;;;;;;15.40;9.88;;;;;;;-143.48;100.00;118439.88;5056474;28;20479;-73
2023/05/08 00:14:48;;;;;;;20.75;10.95;;;;;;;-143.48;100.00;118439.88;5056417;28;20029;-72
2023/05/08 00:17:13;;;;;;;13.05;10.52;;;;;;;-143.48;100.00;118439.88;5056617;28;20104;-74
2023/05/08 00:19:39;;;;;;;15.05;10.80;;;;;;;-143.48;100.00;118439.88;5056269;28;20468;-73
2023/05/08 00:22:04;;;;;;;11.93;10.43;;;;;;;-143.48;100.00;118439.88;5056502;28;20079;-73
2023/05/08 00:24:29;;;;;;;12.45;10.43;;;;;;;-143.48;100.00;118439.88;5056217;28;20025;-73
2023/05/08 00:26:55;;;;;;;12.50;9.88;;;;;;;-143.48;100.00;118439.88;5056162;28;20036;-74
2023/05/08 00:29:20;;;;;;;12.43;10.15;;;;;;;-143.48;100.00;118439.88;5056228;28;20032;-73
2023/05/08 00:31:46;;;;;;;14.05;9.90;;;;;;;-143.48;100.00;118439.88;5056193;28;20082;-74
2023/05/08 00:34:11;;;;;;;13.30;9.75;;;;;;;-143.48;100.00;118439.88;5056141;28;20374;-74
2023/05/08 00:36:36;;;;;;;11.40;9.50;;;;;;;-143.48;100.00;118439.88;5056054;28;20033;-74
2023/05/08 00:39:02;;;;;;;10.88;9.75;;;;;;;-143.48;100.00;118439.88;5038217;28;20025;-74
2023/05/08 00:41:27;;;;;;;10.43;9.32;;;;;;;-143.48;100.00;118439.88;5055863;28;20498;-74
2023/05/08 00:43:53;;;;;;;10.70;9.60;;;;;;;-143.48;100.00;118439.88;5055996;28;20021;-73
2023/05/08 00:46:18;;;;;;;10.20;9.10;;;;;;;-143.48;100.00;118439.88;5037717;28;20492;-73
2023/05/08 00:48:44;;;;;;;11.18;9.70;;;;;;;-143.48;100.00;118439.88;5055954;28;20108;-73
2023/05/08 00:51:11;;;;;;;12.65;9.20;;;;;;;-143.48;100.00;118439.88;5055586;28;20027;-73
2023/05/08 00:53:38;;;;;;;10.70;8.52;;;;;;;-143.48;100.00;118439.88;5037804;28;20032;-73
2023/05/08 00:56:04;;;;;;;14.25;9.15;;;;;;;-143.48;100.00;118439.88;5055721;28;20019;-73
2023/05/08 00:58:31;;;;;;;10.80;9.70;;;;;;;-143.48;100.00;118439.88;5037754;28;20017;-73
2023/05/08 01:00:58;;;;;;;11.60;10.05;;;;;;;-143.48;100.00;118439.88;5037692;28;20028;-74
2023/05/08 01:03:24;;;;;;;15.38;10.93;;;;;;;-143.48;100.00;118439.88;5037651;28;20035;-73
2023/05/08 01:05:49;;;;;;;12.20;10.30;;;;;;;-143.48;100.00;118439.88;5055492;28;20025;-73
2023/05/08 01:08:14;;;;;;;23.40;10.63;;;;;;;-143.48;100.00;118439.88;5055497;28;20094;-73
2023/05/08 01:10:51;;;;;;;18.95;10.23;;;;;;;-143.48;100.00;118439.88;5055526;28;20036;-74
2023/05/08 01:13:40;;;;;;;32.35;12.02;;;;;;;-143.48;100.00;118439.88;5037490;28;20027;-75
2023/05/08 01:16:21;;;;;;;17.65;11.82;;;;;;;-143.48;100.00;118439.88;5037430;28;20079;-74
2023/05/08 01:18:56;;;;;;;19.02;11.98;;;;;;;-143.48;100.00;118439.88;5037387;28;20021;-74
2023/05/08 01:21:39;;;;;;;16.80;11.90;;;;;;;-143.48;100.00;118439.88;5055242;28;20029;-74
2023/05/08 01:24:23;;;;;;;15.45;11.57;;;;;;;-143.48;100.00;118439.88;5055298;28;20522;-73
2023/05/08 01:27:07;;;;;;;15.10;12.25;;;;;;;-143.48;100.00;118439.88;5055006;28;20032;-74
2023/05/08 01:29:59;;;;;;;14.07;11.40;;;;;;;-143.48;100.00;118439.88;5055060;28;20037;-74
2023/05/08 01:32:31;;;;;;;20.95;13.15;;;;;;;-143.48;100.00;118439.88;5037184;28;20017;-73
2023/05/08 01:35:09;;;;;;;16.80;12.00;;;;;;;-143.48;100.00;118439.88;5037105;28;20029;-74
2023/05/08 01:37:39;;;;;;;16.08;12.65;;;;;;;-143.48;100.00;118439.88;5054908;28;20045;-73
2023/05/08 01:40:27;;;;;;;17.40;13.30;;;;;;;-143.48;100.00;118439.88;5054915;28;20443;-74
2023/05/08 01:43:03;;;;;;;20.42;14.15;;;;;;;-143.48;100.00;118439.88;5054881;28;20025;-73
2023/05/08 01:45:31;;;;;;;17.13;13.35;;;;;;;-143.48;100.00;118439.88;5054841;28;20366;-74
2023/05/08 01:48:08;;;;;;;17.40;13.20;;;;;;;-143.48;100.00;118439.88;5054489;28;20441;-74
2023/05/08 01:50:39;;;;;;;16.15;12.57;;;;;;;-143.48;100.00;118439.88;5054726;28;20036;-73
2023/05/08 01:53:11;;;;;;;17.13;12.25;;;;;;;-143.48;100.00;118439.88;5054630;28;20025;-73
2023/05/08 01:55:39;;;;;;;20.17;12.43;;;;;;;-143.48;100.00;118439.88;5054600;28;20074;-73
2023/05/08 01:58:08;;;;;;;17.17;11.80;;;;;;;-143.48;100.00;118439.88;5054594;28;20016;-73
2023/05/08 02:00:34;;;;;;;18.50;12.13;;;;;;;-143.48;100.00;118439.88;5036651;28;20419;-73
2023/05/08 02:02:59;;;;;;;21.20;12.18;;;;;;;-143.48;100.00;118439.88;5053895;28;20108;-72
2023/05/08 02:05:26;;;;;;;18.83;12.45;;;;;;;-143.48;100.00;118439.88;5054240;28;20033;-73
2023/05/08 02:07:54;;;;;;;18.05;11.63;;;;;;;-143.48;100.00;118439.88;5054199;28;20111;-73
2023/05/08 02:10:23;;;;;;;17.23;10.70;;;;;;;-143.48;100.00;118439.88;5054392;28;20108;-73
2023/05/08 02:12:49;;;;;;;15.13;11.05;;;;;;;-143.48;100.00;118439.88;5036409;28;20075;-72
2023/05/08 02:15:16;;;;;;;16.20;11.45;;;;;;;-143.48;100.00;118439.88;5036310;28;20057;-74
2023/05/08 02:17:45;;;;;;;17.02;10.98;;;;;;;-143.48;100.00;118439.88;5036249;28;20021;-74
2023/05/08 02:20:13;;;;;;;18.05;11.20;;;;;;;-143.48;100.00;118439.88;5036119;28;20063;-74
2023/05/08 02:22:42;;;;;;;15.73;11.18;;;;;;;-143.48;100.00;118439.88;5054132;28;20492;-73
2023/05/08 02:25:08;;;;;;;16.25;11.95;;;;;;;-143.48;100.00;118439.88;5054016;28;20028;-74
2023/05/08 02:27:35;;;;;;;13.05;11.25;;;;;;;-143.48;100.00;118439.88;5054061;28;20029;-74
2023/05/08 02:30:01;;;;;;;23.75;10.85;;;;;;;-143.48;100.00;118439.88;5053884;28;20024;-75
2023/05/08 02:32:28;;;;;;;16.67;11.80;;;;;;;-143.48;100.00;118439.88;5053867;28;20395;-74
2023/05/08 02:34:55;;;;;;;15.38;11.48;;;;;;;-143.48;100.00;118439.88;5053866;28;20516;-74
2023/05/08 02:37:21;;;;;;;16.98;11.50;;;;;;;-143.48;100.00;118439.88;5035894;28;20013;-74
2023/05/08 02:39:50;;;;;;;17.02;12.13;;;;;;;-143.48;100.00;118439.88;5053696;28;20024;-72
2023/05/08 02:42:15;;;;;;;24.63;11.57;;;;;;;-143.48;100.00;118439.88;5053637;28;20029;-74
2023/05/08 02:44:41;;;;;;;16.42;10.80;;;;;;;-143.48;100.00;118439.88;5053537;28;20423;-74
2023/05/08 02:47:26;;;;;;;18.92;11.63;;;;;;;-143.48;100.00;118439.88;5053424;28;20528;-74
2023/05/08 02:50:02;;;;;;;18.92;11.35;;;;;;;-143.48;100.00;118439.88;5053582;28;20031;-74
2023/05/08 02:52:33;;;;;;;17.27;11.85;;;;;;;-143.48;100.00;118439.88;5035604;28;20025;-73
2023/05/08 02:55:17;;;;;;;14.23;10.70;;;;;;;-143.48;100.00;118439.88;5053364;28;20472;-72
2023/05/08 02:58:04;;;;;;;17.95;11.98;;;;;;;-143.48;100.00;118439.88;5053426;28;20025;-73
2023/05/08 03:00:34;;;;;;;17.58;11.20;;;;;;;-143.48;100.00;118439.88;5053427;28;20017;-73
2023/05/08 03:03:00;;;;;;;17.02;11.30;;;;;;;-143.48;100.00;118439.88;5053287;28;20032;-73
2023/05/08 03:05:32;;;;;;;17.02;11.02;;;;;;;-143.48;100.00;118439.88;5053409;28;20032;-74
2023/05/08 03:08:09;;;;;;;17.05;10.88;;;;;;;-143.48;100.00;118439.88;5053370;28;20060;-74
2023/05/08 03:10:36;;;;;;;14.93;11.57;;;;;;;-143.48;100.00;118439.88;5035345;28;20021;-73
2023/05/08 03:13:04;;;;;;;16.23;12.02;;;;;;;-143.48;100.00;118439.88;5053147;28;20469;-73
2023/05/08 03:15:40;;;;;;;16.25;10.80;;;;;;;-143.48;100.00;118439.88;5053001;28;20048;-74
2023/05/08 03:18:10;;;;;;;14.07;10.85;;;;;;;-143.48;100.00;118439.88;5053033;28;20032;-73
2023/05/08 03:20:42;;;;;;;16.65;13.27;;;;;;;-143.48;100.00;118439.88;5035217;28;20847;-74
2023/05/08 03:23:10;;;;;;;44.70;13.85;;;;;;;-143.48;100.00;118439.88;5035461;28;20024;-74
2023/05/08 03:25:38;;;;;;;53.35;14.73;;;;;;;-143.48;100.00;118439.88;5053081;28;20239;-74
2023/05/08 03:28:04;;;;;;;82.15;15.02;;;;;;;-143.48;100.00;118439.88;5052927;28;20017;-74
2023/05/08 03:30:35;;;;;;;43.75;14.27;;;;;;;-143.48;100.00;118439.88;5035295;28;20531;-74
2023/05/08 03:33:02;;;;;;;19.05;13.13;;;;;;;-143.48;100.00;118439.88;5052955;28;20029;-73
2023/05/08 03:35:29;;;;;;;28.77;13.35;;;;;;;-143.48;100.00;118439.88;5052906;28;20028;-74
2023/05/08 03:37:54;;;;;;;108.93;17.05;;;;;;;-143.48;100.00;118439.88;5052867;28;20032;-74
2023/05/08 03:40:20;;;;;;;132.30;18.30;;;;;;;-143.48;100.00;118439.88;5052885;28;20033;-75
2023/05/08 03:42:46;;;;;;;148.07;17.88;;;;;;;-143.48;100.00;118439.88;5035034;28;20025;-74
2023/05/08 03:45:13;;;;;;;83.38;15.10;;;;;;;-143.48;100.00;118439.88;5034976;28;20362;-74
2023/05/08 03:47:39;;;;;;;87.50;16.08;;;;;;;-143.48;100.00;118439.88;5034746;28;20060;-74
2023/05/08 03:50:07;;;;;;;144.57;16.25;;;;;;;-143.48;100.00;118439.88;5052897;28;20095;-74
2023/05/08 03:52:33;;;;;;;124.88;15.48;;;;;;;-143.48;100.00;118439.88;5052776;28;20021;-74
2023/05/08 03:55:00;;;;;;;95.90;12.88;;;;;;;-143.48;100.00;118439.88;5052845;28;20029;-74
2023/05/08 03:57:29;;;;;;;120.60;13.85;;;;;;;-143.48;100.00;118439.88;5052774;28;20021;-74
2023/05/08 04:00:22;;;;;;;134.50;13.63;;;;;;;-143.48;100.00;118439.88;5052756;28;20032;-75
2023/05/08 04:03:03;;;;;;;157.90;13.00;;;;;;;-143.48;100.00;118439.88;5052739;28;20021;-74
2023/05/08 04:05:42;;;;;;;90.00;10.60;;;;;;;-143.48;100.00;118439.88;5034815;28;20024;-74
2023/05/08 04:08:21;;;;;;;86.90;10.70;;;;;;;-143.48;100.00;118439.88;5052608;28;20029;-74
2023/05/08 04:10:53;;;;;;;87.47;10.13;;;;;;;-143.48;100.00;118439.88;5052750;28;20032;-74
2023/05/08 04:13:24;;;;;;;54.35;9.43;;;;;;;-143.48;100.00;118439.88;5052650;28;20020;-75
2023/05/08 04:15:53;;;;;;;60.80;9.85;;;;;;;-143.48;100.00;118439.88;5034725;28;20439;-74
2023/05/08 04:18:26;;;;;;;54.20;9.90;;;;;;;-143.48;100.00;118439.88;5052550;28;20029;-74
2023/05/08 04:20:53;;;;;;;;;;;;;;;-143.48;100.00;118439.88;5053050;28;20071;-74
2023/05/08 04:23:20;;;;;;;20.13;9.07;;;;;;;-143.48;100.00;118439.88;5052603;28;20011;-74
2023/05/08 04:25:48;;;;;;;28.40;9.13;;;;;;;-143.48;100.00;118439.88;5052531;28;20029;-74
2023/05/08 04:28:14;;;;;;;12.80;9.10;;;;;;;-143.48;100.00;118439.88;5037604;28;20029;-74
2023/05/08 04:30:40;;;;;;;16.85;9.77;;;;;;;-143.48;100.00;118439.88;5038267;28;20111;-74
2023/05/08 04:33:06;;;;;;;18.95;9.10;;;;;;;-143.48;100.00;118439.88;5056140;28;20432;-74
2023/05/08 04:35:32;;;;;;;19.30;9.23;;;;;;;-143.48;100.00;118439.88;5038225;28;20133;-74
2023/05/08 04:37:58;;;;;;;14.68;9.93;;;;;;;-143.48;100.00;118439.88;5055941;28;20024;-73
2023/05/08 04:40:24;;;;;;;11.45;9.23;;;;;;;-143.48;100.00;118439.88;5038010;28;20120;-74
2023/05/08 04:42:50;;;;;;;10.88;9.02;;;;;;;-143.48;100.00;118439.88;5037886;28;20077;-74
2023/05/08 04:45:15;;;;;;;11.38;9.38;;;;;;;-143.48;100.00;118439.88;5038034;28;20036;-73
2023/05/08 04:47:41;;;;;;;16.23;10.43;;;;;;;-143.48;100.00;118439.88;5055579;28;20039;-74
2023/05/08 04:50:06;;;;;;;15.50;9.65;;;;;;;-143.48;100.00;118439.88;5037977;28;20109;-73
2023/05/08 04:52:32;;;;;;;54.72;10.57;;;;;;;-143.48;100.00;118439.88;5037834;28;20025;-73
2023/05/08 04:54:57;;;;;;;86.03;11.50;;;;;;;-143.48;100.00;118439.88;5037673;28;20067;-74
2023/05/08 04:57:23;;;;;;;52.50;10.38;;;;;;;-143.48;100.00;118439.88;5055670;28;20021;-73
2023/05/08 04:59:48;;;;;;;49.78;10.60;;;;;;;-143.48;100.00;118439.88;5055522;28;20028;-74
2023/05/08 05:02:14;;;;;;;41.25;9.93;;;;;;;-143.48;100.00;118439.88;5037615;28;20119;-73
2023/05/08 05:04:39;;;;;;;53.95;10.48;;;;;;;-143.48;100.00;118439.88;5037577;28;20025;-72
2023/05/08 05:07:04;;;;;;;22.08;10.05;;;;;;;-143.48;100.00;118439.88;5056010;28;20083;-74
2023/05/08 05:09:30;;;;;;;36.55;11.02;;;;;;;-143.48;100.00;118439.88;5055425;28;20491;-74
2023/05/08 05:11:55;;;;;;;41.80;11.00;;;;;;;-143.48;100.00;118439.88;5037399;28;20496;-74
2023/05/08 05:14:21;;;;;;;24.52;11.13;;;;;;;-143.48;100.00;118439.88;5037420;28;20385;-74
2023/05/08 05:16:46;;;;;;;18.40;10.90;;;;;;;-143.48;100.00;118439.88;5055098;28;20028;-74
2023/05/08 05:19:11;;;;;;;13.52;10.77;;;;;;;-143.48;100.00;118439.88;5055072;28;20125;-73
2023/05/08 05:21:37;;;;;;;17.85;10.90;;;;;;;-143.48;100.00;118439.88;5055243;28;20025;-73
2023/05/08 05:24:04;;;;;;;15.60;11.82;;;;;;;-143.48;100.00;118439.88;5037127;28;20029;-74
2023/05/08 05:26:30;;;;;;;15.13;11.43;;;;;;;-143.48;100.00;118439.88;5054955;28;20431;-74
2023/05/08 05:28:55;;;;;;;16.73;12.20;;;;;;;-143.48;100.00;118439.88;5055004;28;20032;-75
2023/05/08 05:31:20;;;;;;;16.17;11.63;;;;;;;-143.48;100.00;118439.88;5036992;28;20025;-73
2023/05/08 05:33:46;;;;;;;14.43;11.50;;;;;;;-143.48;100.00;118439.88;5055004;28;20477;-74
2023/05/08 05:36:11;;;;;;;14.00;11.20;;;;;;;-143.48;100.00;118439.88;5036987;28;20031;-74
2023/05/08 05:38:36;;;;;;;16.42;12.48;;;;;;;-143.48;100.00;118439.88;5053639;28;20025;-74
2023/05/08 05:41:02;;;;;;;15.52;11.68;;;;;;;-143.48;100.00;118439.88;5054836;28;20025;-74
2023/05/08 05:43:27;;;;;;;15.48;12.70;;;;;;;-143.48;100.00;118439.88;5036864;28;20059;-73
2023/05/08 05:45:54;;;;;;;14.70;11.80;;;;;;;-143.48;100.00;118439.88;5054546;28;20028;-76
2023/05/08 05:48:20;;;;;;;14.77;12.20;;;;;;;-143.48;100.00;118439.88;5054561;28;20120;-74
2023/05/08 05:50:45;;;;;;;14.68;12.25;;;;;;;-143.48;100.00;118439.88;5054568;28;20025;-74
2023/05/08 05:53:11;;;;;;;17.67;12.95;;;;;;;-143.48;100.00;118439.88;5036646;28;20028;-74
2023/05/08 05:55:37;;;;;;;16.77;12.93;;;;;;;-143.48;100.00;118439.88;5054632;28;20389;-74
2023/05/08 05:58:02;;;;;;;19.00;12.15;;;;;;;-143.48;100.00;118439.88;5036639;28;20052;-75
2023/05/08 06:00:29;;;;;;;16.15;12.95;;;;;;;-143.48;100.00;118439.88;5036517;28;20473;-74
2023/05/08 06:02:54;;;;;;;17.52;12.75;;;;;;;-143.48;100.00;118439.88;5036451;28;20025;-74
2023/05/08 06:05:20;;;;;;;18.50;12.65;;;;;;;-143.48;100.00;118439.88;5054357;28;20021;-73
2023/05/08 06:07:45;;;;;;;18.88;13.05;;;;;;;-143.48;100.00;118439.88;5036411;28;20036;-74
2023/05/08 06:10:10;;;;;;;20.02;13.52;;;;;;;-143.48;100.00;118439.88;5054219;28;20021;-73
2023/05/08 06:12:36;;;;;;;68.68;16.08;;;;;;;-143.48;100.00;118439.88;5036357;28;20056;-73
2023/05/08 06:15:02;;;;;;;61.90;17.48;;;;;;;-143.48;100.00;118439.88;5054322;28;20606;-73
2023/05/08 06:17:27;;;;;;;102.40;17.73;;;;;;;-143.48;100.00;118439.88;5036186;28;20495;-74
2023/05/08 06:19:54;;;;;;;146.27;18.50;;;;;;;-143.48;100.00;118439.88;5036101;28;20044;-73
2023/05/08 06:22:23;;;;;;;96.60;17.73;;;;;;;-143.48;100.00;118439.88;5036227;28;20040;-74
2023/05/08 06:24:52;;;;;;;140.50;17.48;;;;;;;-143.48;100.00;118439.88;5036153;28;20022;-74
2023/05/08 06:27:19;;;;;;;107.38;18.58;;;;;;;-143.48;100.00;118439.88;5053913;28;20017;-73
2023/05/08 06:29:44;;;;;;;114.10;18.15;;;;;;;-143.48;100.00;118439.88;5035993;28;20025;-73
2023/05/08 06:32:10;;;;;;;142.20;18.05;;;;;;;-143.48;100.00;118439.88;5053814;28;20384;-73
2023/05/08 06:34:35;;;;;;;135.73;17.88;;;;;;;-143.48;100.00;118439.88;5053810;28;20029;-73
2023/05/08 06:37:00;;;;;;;143.25;17.42;;;;;;;-143.48;100.00;118439.88;5035935;28;20028;-72
2023/05/08 06:39:26;;;;;;;124.70;18.25;;;;;;;-143.48;100.00;118439.88;5036033;28;20025;-73
2023/05/08 06:41:51;;;;;;;76.60;16.90;;;;;;;-143.48;100.00;118439.88;5035851;28;20071;-73
2023/05/08 06:44:17;;;;;;;50.75;16.38;;;;;;;-143.48;100.00;118439.88;5053866;28;20024;-73
2023/05/08 06:46:42;;;;;;;40.10;16.75;;;;;;;-143.48;100.00;118439.88;5053406;28;20045;-74
2023/05/08 06:49:07;;;;;;;25.85;16.25;;;;;;;-143.48;100.00;118439.88;5053449;28;20023;-73
2023/05/08 06:51:34;;;;;;;27.15;17.88;;;;;;;-143.48;100.00;118439.88;5053518;28;20055;-73
2023/05/08 06:54:00;;;;;;;37.38;17.73;;;;;;;-143.48;100.00;118439.88;5035556;28;20025;-74
2023/05/08 06:56:25;;;;;;;40.20;18.58;;;;;;;-143.48;100.00;118439.88;5035886;28;20082;-74
2023/05/08 06:58:51;;;;;;;32.75;18.52;;;;;;;-143.48;100.00;118439.88;5053419;28;20032;-75
2023/05/08 07:01:16;;;;;;;35.72;18.88;;;;;;;-143.48;100.00;118439.88;5053290;28;20496;-73
2023/05/08 07:03:41;;;;;;;38.72;19.02;;;;;;;-143.48;100.00;118439.88;5053193;28;20031;-73
2023/05/08 07:06:10;;;;;;;33.00;18.77;;;;;;;-143.48;100.00;118439.88;5053052;28;20028;-73
2023/05/08 07:08:36;;;;;;;31.30;19.17;;;;;;;-143.48;100.00;118439.88;5035371;28;20028;-73
2023/05/08 07:11:02;;;;;;;33.22;18.80;;;;;;;-143.48;100.00;118439.88;5053132;28;20114;-73
2023/05/08 07:13:28;;;;;;;31.95;19.67;;;;;;;-143.48;100.00;118439.88;5052990;28;20017;-73
2023/05/08 07:15:54;;;;;;;30.92;19.20;;;;;;;-143.48;100.00;118439.88;5053037;28;20111;-73
2023/05/08 07:18:19;;;;;;;35.50;19.58;;;;;;;-143.48;100.00;118439.88;5035674;28;20025;-73
2023/05/08 07:20:45;;;;;;;31.45;19.42;;;;;;;-143.48;100.00;118439.88;5053508;28;20381;-72
2023/05/08 07:23:10;;;;;;;30.65;20.42;;;;;;;-143.48;100.00;118439.88;5053583;28;20025;-74
2023/05/08 07:25:35;;;;;;;30.55;19.60;;;;;;;-143.48;100.00;118439.88;5054393;28;20025;-74
2023/05/08 07:28:01;;;;;;;28.80;20.00;;;;;;;-143.48;100.00;118439.88;5037292;28;20025;-75
2023/05/08 07:30:26;;;;;;;33.00;20.92;;;;;;;-143.48;100.00;118439.88;5058736;28;20085;-74
2023/05/08 07:32:52;;;;;;;31.27;21.55;;;;;;;-143.48;100.00;118439.88;5042465;28;20060;-74
2023/05/08 07:35:17;;;;;;;32.67;21.58;;;;;;;-143.48;100.00;118439.88;5060039;28;20472;-73
2023/05/08 07:37:42;;;;;;;32.58;21.35;;;;;;;-143.48;100.00;118439.88;5059467;28;20029;-73
2023/05/08 07:40:08;;;;;;;31.50;21.40;;;;;;;-143.48;100.00;118439.88;5059621;28;20085;-73
2023/05/08 07:42:39;;;;;;;31.33;21.02;;;;;;;-143.48;100.00;118439.88;5058528;28;20029;-76
2023/05/08 07:45:04;;;;;;;31.33;20.80;;;;;;;-143.48;100.00;118439.88;5054645;28;20036;-74
2023/05/08 07:47:30;;;;;;;31.63;20.83;;;;;;;-143.48;100.00;118439.88;5054137;28;20449;-75
2023/05/08 07:49:55;;;;;;;30.35;19.85;;;;;;;-143.48;100.00;118439.88;5053731;28;20028;-74
2023/05/08 07:52:20;;;;;;;30.30;20.05;;;;;;;-143.48;100.00;118439.88;5035657;28;20079;-74
2023/05/08 07:54:46;;;;;;;31.13;21.42;;;;;;;-143.48;100.00;118439.88;5035211;28;20548;-74
2023/05/08 07:57:11;;;;;;;35.03;21.88;;;;;;;-143.48;100.00;118439.88;5035370;28;20029;-74
2023/05/08 07:59:37;;;;;;;30.52;21.92;;;;;;;-143.48;100.00;118439.88;5053031;28;20542;-73
2023/05/08 08:02:02;;;;;;;40.20;22.83;;;;;;;-143.48;100.00;118439.88;5036327;28;20059;-74
2023/05/08 08:04:27;;;;;;;37.92;23.33;;;;;;;-143.48;100.00;118439.88;5056356;28;20032;-72
2023/05/08 08:06:54;;;;;;;36.50;23.77;;;;;;;-143.48;100.00;118439.88;5057604;28;20025;-74
2023/05/08 08:09:20;;;;;;;38.08;23.33;;;;;;;-143.48;100.00;118439.88;5040272;28;20053;-74
2023/05/08 08:11:46;;;;;;;38.60;23.80;;;;;;;-143.48;100.00;118439.88;5057619;28;20036;-74
2023/05/08 08:14:11;;;;;;;39.75;24.40;;;;;;;-143.48;100.00;118439.88;5056526;28;20388;-74
2023/05/08 08:16:36;;;;;;;38.58;23.77;;;;;;;-143.48;100.00;118439.88;5038717;28;20371;-73
2023/05/08 08:19:02;;;;;;;40.17;23.95;;;;;;;-143.48;100.00;118439.88;5056605;28;20021;-74
2023/05/08 08:21:27;;;;;;;37.72;24.38;;;;;;;-143.48;100.00;118439.88;5038519;28;20017;-75
2023/05/08 08:23:53;;;;;;;39.33;24.00;;;;;;;-143.48;100.00;118439.88;5056565;28;20033;-75
2023/05/08 08:26:18;;;;;;;36.53;22.55;;;;;;;-143.48;100.00;118439.88;5039163;28;20503;-75
2023/05/08 08:28:43;;;;;;;37.90;24.30;;;;;;;-143.48;100.00;118439.88;5056108;28;20025;-74
2023/05/08 08:31:12;;;;;;;37.38;23.67;;;;;;;-143.48;100.00;118439.88;5038334;28;20112;-74
2023/05/08 08:33:37;;;;;;;38.10;23.70;;;;;;;-143.48;100.00;118439.88;5038154;28;20488;-73
2023/05/08 08:36:03;;;;;;;35.70;22.33;;;;;;;-143.48;100.00;118439.88;5056271;28;20042;-73
2023/05/08 08:38:28;;;;;;;40.60;24.85;;;;;;;-143.48;100.00;118439.88;5038156;28;20048;-73
2023/05/08 08:40:53;;;;;;;38.88;23.80;;;;;;;-143.48;100.00;118439.88;5038224;28;20021;-75
2023/05/08 08:43:19;;;;;;;38.13;23.15;;;;;;;-143.48;100.00;118439.88;5055248;28;20056;-74
2023/05/08 08:45:44;;;;;;;38.35;23.95;;;;;;;-143.48;100.00;118439.88;5054986;28;20079;-72
2023/05/08 08:48:11;;;;;;;38.55;24.23;;;;;;;-143.48;100.00;118439.88;5035832;28;20078;-74
2023/05/08 08:50:41;;;;;;;38.58;24.42;;;;;;;-143.48;100.00;118439.88;5053853;28;20108;-72
2023/05/08 08:53:26;;;;;;;37.90;23.73;;;;;;;-143.48;100.00;118439.88;5053404;28;20020;-73
2023/05/08 08:55:54;;;;;;;39.97;24.52;;;;;;;-143.48;100.00;118439.88;5053571;28;20559;-73
2023/05/08 08:58:49;;;;;;;45.97;27.45;;;;;;;-143.48;100.00;118439.88;5035703;28;20024;-73
2023/05/08 09:01:17;;;;;;;45.13;26.92;;;;;;;-143.48;100.00;118439.88;5036699;28;20059;-73
2023/05/08 09:03:42;;;;;;;44.22;26.30;;;;;;;-143.48;100.00;118439.88;5054476;28;20020;-73
2023/05/08 09:06:08;;;;;;;43.90;26.95;;;;;;;-143.48;100.00;118439.88;5034668;28;20036;-72
2023/05/08 09:08:34;;;;;;;47.95;27.75;;;;;;;-143.48;100.00;118439.88;5052262;28;20032;-72
2023/05/08 09:11:01;;;;;;;45.78;27.40;;;;;;;-143.48;100.00;118439.88;5034490;28;20480;-72
2023/05/08 09:13:28;;;;;;;46.50;29.15;;;;;;;-143.48;100.00;118439.88;5051785;28;20055;-72
2023/05/08 09:15:53;;;;;;;47.17;29.50;;;;;;;-143.48;100.00;118439.88;5052420;28;20365;-72
2023/05/08 09:18:19;;;;;;;47.85;29.02;;;;;;;-143.48;100.00;118439.88;5053202;28;20048;-72
2023/05/08 09:20:45;;;;;;;49.70;30.45;;;;;;;-143.48;100.00;118439.88;5035336;28;20120;-72
2023/05/08 09:23:10;;;;;;;46.80;27.88;;;;;;;-143.48;100.00;118439.88;5053985;28;20383;-71
2023/05/08 09:25:42;;;;;;;47.22;28.45;;;;;;;-143.48;99.67;118439.88;5053290;28;20029;-73
2023/05/08 09:28:24;;;;;;;46.05;28.00;;;;;;;-143.48;100.00;118439.88;5051869;28;20021;-71
2023/05/08 09:30:53;;;;;;;53.47;30.25;;;;;;;-143.48;100.00;118439.88;5052362;28;20052;-71
2023/05/08 09:33:23;;;;;;;48.03;28.63;;;;;;;-143.48;100.00;118439.88;5052395;28;20028;-72
2023/05/08 09:35:48;;;;;;;48.28;28.70;;;;;;;-143.48;98.17;118439.88;5034330;28;20021;-72
2023/05/08 09:38:34;;;;;;;49.28;29.67;;;;;;;-143.48;97.83;118439.88;5033956;28;20051;-72
2023/05/08 09:41:16;;;;;;;47.65;29.63;;;;;;;-143.48;98.06;118439.88;5035109;28;20549;-74
2023/05/08 09:43:43;;;;;;;54.83;31.25;;;;;;;-143.48;98.11;118439.88;5051805;28;20492;-73
2023/05/08 09:46:25;;;;;;;54.70;31.25;;;;;;;-143.48;97.91;118439.88;4995979;28;1087256;-73
2023/05/08 09:48:52;;;;;;;68.45;37.58;;;;;;;-143.48;98.59;118439.88;5052613;28;20071;-72
2023/05/08 09:51:18;;;;;;;67.57;39.38;;;;;;;-143.48;98.52;118439.88;5052445;28;20036;-73
2023/05/08 09:53:44;;;;;;;74.40;41.47;;;;;;;-143.48;98.71;118439.88;5034728;28;20024;-73
2023/05/08 09:56:10;;;;;;;87.38;47.22;;;;;;;-143.48;100.00;118439.88;5052614;28;20553;-73
2023/05/08 09:58:43;;;;;;;92.85;47.33;;;;;;;-143.48;100.00;118439.88;5036289;28;20054;-73
2023/05/08 10:01:30;;;;;;;100.25;49.47;;;;;;;-143.48;100.00;118439.88;5053839;28;20029;-72
2023/05/08 10:03:55;;;;;;;103.15;50.85;;;;;;;-143.48;100.00;118439.88;5054266;28;20441;-73
2023/05/08 10:06:21;;;;;;;103.78;51.17;;;;;;;-143.48;100.00;118439.88;5036506;28;20028;-73
2023/05/08 10:08:47;;;;;;;109.28;53.83;;;;;;;-143.48;100.00;118439.88;5036367;28;20384;-73
2023/05/08 10:11:15;;;;;;;106.18;51.65;;;;;;;-143.48;99.45;118439.88;5054351;28;20434;-74
2023/05/08 10:13:40;;;;;;;102.70;51.35;;;;;;;-143.48;98.27;118439.88;5036266;28;20025;-72
2023/05/08 10:16:08;;;;;;;97.65;49.13;;;;;;;-143.48;96.16;118439.88;5054130;28;20044;-74
2023/05/08 10:18:35;;;;;;;93.95;48.63;;;;;;;-143.48;93.61;118439.88;5020144;28;20028;-74
2023/05/08 10:21:05;;;;;;;102.82;49.55;;;;;;;-143.48;94.75;118439.88;5054125;28;20104;-74
2023/05/08 10:23:33;;;;;;;97.03;49.03;;;;;;;-143.48;93.52;118439.88;5053852;28;20037;-73
2023/05/08 10:26:06;;;;;;;95.63;49.08;;;;;;;-143.48;95.60;118439.88;5052930;28;20344;-72
2023/05/08 10:28:39;;;;;;;91.45;48.85;;;;;;;-143.48;96.70;118439.88;5053336;28;20036;-72
2023/05/08 10:31:12;;;;;;;116.22;59.80;;;;;;;-143.48;95.74;118439.88;5034901;28;20035;-73
2023/05/08 10:33:39;;;;;;;87.95;46.28;;;;;;;-143.48;95.13;118439.88;5035525;28;20021;-73
2023/05/08 10:36:06;;;;;;;88.90;45.33;;;;;;;-143.48;93.10;118439.88;5036269;28;20237;-72
2023/05/08 10:38:32;;;;;;;83.50;44.30;;;;;;;-143.48;93.18;118439.88;5035371;28;20017;-73
2023/05/08 10:41:01;;;;;;;93.80;46.20;;;;;;;-143.48;93.34;118439.88;5035528;28;20029;-73
2023/05/08 10:43:29;;;;;;;83.72;46.05;;;;;;;-143.48;94.79;118439.88;5053548;28;20021;-73
2023/05/08 10:45:56;;;;;;;87.97;45.50;;;;;;;-143.48;94.01;118439.88;5034293;28;20028;-73
2023/05/08 10:48:44;;;;;;;83.22;43.97;;;;;;;-143.48;90.53;118439.88;5053498;28;20396;-74
2023/05/08 10:51:37;;;;;;;83.05;43.92;;;;;;;-143.48;89.23;118439.88;5053451;28;20032;-73